createdAt,value
2023-02-18T00:02:02.658Z,34.10
2023-02-18T00:04:32.366Z,38.00
2023-02-18T00:07:01.256Z,38.60
2023-02-18T00:09:31.089Z,42.20
2023-02-18T00:11:59.976Z,48.10
2023-02-18T00:14:28.688Z,37.70
2023-02-18T00:16:57.376Z,45.80
2023-02-18T00:19:26.113Z,45.30
2023-02-18T00:21:54.683Z,47.00
2023-02-18T00:24:23.516Z,41.70
2023-02-18T00:26:52.343Z,39.00
2023-02-18T00:29:21.161Z,47.10
2023-02-18T00:31:52.399Z,39.10
2023-02-18T00:34:21.556Z,40.10
2023-02-18T00:36:50.087Z,47.10
2023-02-18T00:39:18.638Z,36.10
2023-02-18T00:41:47.320Z,49.90
2023-02-18T00:44:17.397Z,48.20
2023-02-18T00:46:48.486Z,51.60
2023-02-18T00:49:17.355Z,41.30
2023-02-18T00:51:45.963Z,51.20
2023-02-18T00:54:14.676Z,46.90
2023-02-18T00:56:43.184Z,42.30
2023-02-18T00:59:13.829Z,47.40
2023-02-18T01:01:42.456Z,40.00
2023-02-18T01:04:14.574Z,39.50
2023-02-18T01:06:45.184Z,33.60
2023-02-18T01:09:14.005Z,43.50
2023-02-18T01:11:42.868Z,46.30
2023-02-18T01:14:11.513Z,45.50
2023-02-18T01:16:41.936Z,38.60
2023-02-18T01:19:10.874Z,47.70
2023-02-18T01:21:40.063Z,42.50
2023-02-18T01:24:09.773Z,41.80
2023-02-18T01:26:38.522Z,46.00
2023-02-18T01:29:07.162Z,44.30
2023-02-18T01:31:36.335Z,47.90
2023-02-18T01:34:06.498Z,39.90
2023-02-18T01:36:35.412Z,47.60
2023-02-18T01:39:06.226Z,44.90
2023-02-18T01:41:35.722Z,44.90
2023-02-18T01:44:18.761Z,46.00
2023-02-18T01:46:47.445Z,41.30
2023-02-18T01:49:24.157Z,46.30
2023-02-18T01:51:56.509Z,42.70
2023-02-18T01:54:40.001Z,44.70
2023-02-18T01:57:31.748Z,46.00
2023-02-18T02:00:04.243Z,38.50
2023-02-18T02:02:45.789Z,57.50
2023-02-18T02:05:14.986Z,46.50
2023-02-18T02:07:43.753Z,49.90
2023-02-18T02:10:13.294Z,48.70
2023-02-18T02:13:05.568Z,47.00
2023-02-18T02:15:38.966Z,49.20
2023-02-18T02:18:09.857Z,47.20
2023-02-18T02:21:01.830Z,54.80
2023-02-18T02:23:46.158Z,68.70
2023-02-18T02:26:17.617Z,74.60
2023-02-18T02:29:10.218Z,67.80
2023-02-18T02:31:51.137Z,77.40
2023-02-18T02:34:38.402Z,89.80
2023-02-18T02:37:07.179Z,76.30
2023-02-18T02:39:52.651Z,69.20
2023-02-18T02:42:28.937Z,84.20
2023-02-18T02:45:06.461Z,74.20
2023-02-18T02:47:47.059Z,92.90
2023-02-18T02:50:43.796Z,88.50
2023-02-18T02:53:20.556Z,89.60
2023-02-18T02:58:20.234Z,77.60
2023-02-18T03:01:21.270Z,86.90
2023-02-18T03:04:04.934Z,99.70
2023-02-18T03:06:48.003Z,85.60
2023-02-18T03:12:06.867Z,93.90
2023-02-18T03:14:49.446Z,93.10
2023-02-18T03:17:30.710Z,99.00
2023-02-18T03:20:20.568Z,95.50
2023-02-18T03:22:49.214Z,99.80
2023-02-18T03:25:18.390Z,96.90
2023-02-18T03:27:51.528Z,108.20
2023-02-18T03:30:26.074Z,93.20
2023-02-18T03:32:58.536Z,105.30
2023-02-18T03:35:29.135Z,90.10
2023-02-18T03:38:20.647Z,91.40
2023-02-18T03:40:49.375Z,97.10
2023-02-18T03:43:18.778Z,100.30
2023-02-18T03:45:47.982Z,101.00
2023-02-18T03:48:17.005Z,90.10
2023-02-18T03:50:46.442Z,73.20
2023-02-18T03:53:17.961Z,87.60
2023-02-18T03:55:47.081Z,84.70
2023-02-18T03:58:15.511Z,79.00
2023-02-18T04:00:44.325Z,72.30
2023-02-18T04:03:13.603Z,70.70
2023-02-18T04:05:44.797Z,73.10
2023-02-18T04:08:13.836Z,73.70
2023-02-18T04:10:42.539Z,66.40
2023-02-18T04:13:11.227Z,79.00
2023-02-18T04:15:39.824Z,72.70
2023-02-18T04:18:08.901Z,62.40
2023-02-18T04:20:38.124Z,58.70
2023-02-18T04:23:06.830Z,61.40
2023-02-18T04:25:35.627Z,66.40
2023-02-18T04:28:05.702Z,53.20
2023-02-18T04:30:34.537Z,57.90
2023-02-18T04:33:05.587Z,62.80
2023-02-18T04:35:34.424Z,60.30
2023-02-18T04:38:05.546Z,54.50
2023-02-18T04:40:34.588Z,56.70
2023-02-18T04:43:03.540Z,59.10
2023-02-18T04:45:32.289Z,59.70
2023-02-18T04:48:01.231Z,52.40
2023-02-18T04:50:30.246Z,56.10
2023-02-18T04:52:58.743Z,56.60
2023-02-18T04:55:27.402Z,46.20
2023-02-18T04:57:55.874Z,44.80
2023-02-18T05:00:24.369Z,56.40
2023-02-18T05:02:52.935Z,46.10
2023-02-18T05:05:21.878Z,49.70
2023-02-18T05:07:50.464Z,42.70
2023-02-18T05:10:21.045Z,47.20
2023-02-18T05:12:49.591Z,44.80
2023-02-18T05:15:18.746Z,48.90
2023-02-18T05:17:49.996Z,44.10
2023-02-18T05:20:19.313Z,48.00
2023-02-18T05:22:50.388Z,37.20
2023-02-18T05:25:19.776Z,39.70
2023-02-18T05:27:50.581Z,39.80
2023-02-18T05:30:19.347Z,43.60
2023-02-18T05:32:47.842Z,39.00
2023-02-18T05:35:16.540Z,39.50
2023-02-18T05:37:45.501Z,37.10
2023-02-18T05:40:14.673Z,28.40
2023-02-18T05:42:43.288Z,29.50
2023-02-18T05:45:11.904Z,30.30
2023-02-18T05:47:40.720Z,31.90
2023-02-18T05:50:10.829Z,30.00
2023-02-18T05:52:39.723Z,34.00
2023-02-18T05:55:09.054Z,31.20
2023-02-18T05:57:38.344Z,25.90
2023-02-18T06:00:09.567Z,31.50
2023-02-18T06:02:38.808Z,29.30
2023-02-18T06:05:07.936Z,24.80
2023-02-18T06:07:36.659Z,26.00
2023-02-18T06:10:06.356Z,28.90
2023-02-18T06:12:38.239Z,30.30
2023-02-18T06:15:07.142Z,33.80
2023-02-18T06:17:35.994Z,27.30
2023-02-18T06:20:05.172Z,27.70
2023-02-18T06:22:33.859Z,33.60
2023-02-18T06:25:02.416Z,25.70
2023-02-18T06:27:31.721Z,30.10
2023-02-18T06:30:00.634Z,29.30
2023-02-18T06:32:29.718Z,34.60
2023-02-18T06:34:58.851Z,36.60
2023-02-18T06:37:28.403Z,29.00
2023-02-18T06:39:57.366Z,33.40
2023-02-18T06:42:26.255Z,36.80
2023-02-18T06:44:55.863Z,33.30
2023-02-18T06:47:24.580Z,37.80
2023-02-18T06:49:53.253Z,33.40
2023-02-18T06:52:22.055Z,33.30
2023-02-18T06:54:53.119Z,31.40
2023-02-18T06:57:21.359Z,32.30
2023-02-18T06:59:49.626Z,37.00
2023-02-18T07:02:17.971Z,30.30
2023-02-18T07:04:46.869Z,37.00
2023-02-18T07:07:17.814Z,37.60
2023-02-18T07:09:46.294Z,33.70
2023-02-18T07:12:14.709Z,29.20
2023-02-18T07:17:15.702Z,40.60
2023-02-18T07:19:44.355Z,34.90
2023-02-18T07:22:14.245Z,33.80
2023-02-18T07:24:42.969Z,34.10
2023-02-18T07:27:11.716Z,32.50
2023-02-18T07:29:40.475Z,37.60
2023-02-18T07:32:10.313Z,35.60
2023-02-18T07:34:39.722Z,37.20
2023-02-18T07:37:09.775Z,40.30
2023-02-18T07:39:42.504Z,36.50
2023-02-18T07:42:12.057Z,38.10
2023-02-18T07:44:41.324Z,35.10
2023-02-18T07:47:13.104Z,41.40
2023-02-18T07:49:41.681Z,38.90
2023-02-18T07:52:11.833Z,40.60
2023-02-18T07:54:41.708Z,36.10
2023-02-18T07:57:10.714Z,40.90
2023-02-18T07:59:39.370Z,37.40
2023-02-18T08:02:15.446Z,37.90
2023-02-18T08:04:44.049Z,32.20
2023-02-18T08:07:15.098Z,34.80
2023-02-18T08:09:43.726Z,39.10
2023-02-18T08:12:12.441Z,42.60
2023-02-18T08:14:42.660Z,39.70
2023-02-18T08:17:13.435Z,34.60
2023-02-18T08:19:42.263Z,35.70
2023-02-18T08:22:10.868Z,39.40
2023-02-18T08:24:39.426Z,41.00
2023-02-18T08:27:08.506Z,42.00
2023-02-18T08:29:37.495Z,41.00
2023-02-18T08:32:06.508Z,39.90
2023-02-18T08:34:36.432Z,39.20
2023-02-18T08:37:05.242Z,46.50
2023-02-18T08:39:39.614Z,45.50
2023-02-18T08:42:08.978Z,48.70
2023-02-18T08:44:37.616Z,43.90
2023-02-18T08:48:18.373Z,44.70
2023-02-18T08:49:58.229Z,52.20
2023-02-18T08:52:27.273Z,45.00
2023-02-18T08:54:55.769Z,49.60
2023-02-18T08:57:24.720Z,45.40
2023-02-18T08:59:53.315Z,46.70
2023-02-18T09:02:22.709Z,48.40
2023-02-18T09:04:51.534Z,48.00
2023-02-18T09:07:20.630Z,47.50
2023-02-18T09:09:49.747Z,52.70
2023-02-18T09:12:21.254Z,50.40
2023-02-18T09:14:49.823Z,54.90
2023-02-18T09:17:18.419Z,45.30
2023-02-18T09:19:49.701Z,49.20
2023-02-18T09:22:18.690Z,61.30
2023-02-18T09:24:47.667Z,49.10
2023-02-18T09:27:16.392Z,53.50
2023-02-18T09:29:45.266Z,50.50
2023-02-18T09:32:19.976Z,47.00
2023-02-18T09:34:55.975Z,55.90
2023-02-18T09:37:25.194Z,56.80
2023-02-18T09:39:58.127Z,54.80
2023-02-18T09:42:32.684Z,57.60
2023-02-18T09:45:03.154Z,60.10
2023-02-18T09:47:37.880Z,53.30
2023-02-18T09:50:20.988Z,62.20
2023-02-18T09:52:49.521Z,52.60
2023-02-18T09:55:22.741Z,61.50
2023-02-18T09:57:53.809Z,65.00
2023-02-18T10:00:31.592Z,67.10
2023-02-18T10:03:24.672Z,53.10
2023-02-18T10:05:56.734Z,54.70
2023-02-18T10:08:30.032Z,54.90
2023-02-18T10:11:02.093Z,60.10
2023-02-18T10:13:33.498Z,59.20
2023-02-18T10:16:02.639Z,60.20
2023-02-18T10:18:33.957Z,54.90
2023-02-18T10:21:08.261Z,51.60
2023-02-18T10:24:06.134Z,54.10
2023-02-18T10:26:41.326Z,59.50
2023-02-18T10:29:15.734Z,60.40
2023-02-18T10:31:51.643Z,51.80
2023-02-18T10:34:41.495Z,54.60
2023-02-18T10:37:32.985Z,49.90
2023-02-18T10:40:35.992Z,47.60
2023-02-18T10:43:23.510Z,59.30
2023-02-18T10:46:13.268Z,43.10
2023-02-18T10:48:54.191Z,48.70
2023-02-18T10:51:25.133Z,52.70
2023-02-18T10:53:53.791Z,52.10
2023-02-18T10:56:43.769Z,49.90
2023-02-18T10:59:13.644Z,50.90
2023-02-18T11:01:43.137Z,54.40
2023-02-18T11:04:20.309Z,47.30
2023-02-18T11:06:50.099Z,38.80
2023-02-18T11:09:26.826Z,43.00
2023-02-18T11:12:08.612Z,35.50
2023-02-18T11:14:43.561Z,43.40
2023-02-18T11:17:20.126Z,34.60
2023-02-18T11:20:02.083Z,39.30
2023-02-18T11:22:33.393Z,35.50
2023-02-18T11:25:03.827Z,35.20
2023-02-18T11:27:40.297Z,29.80
2023-02-18T11:30:24.368Z,33.90
2023-02-18T11:32:56.670Z,36.30
2023-02-18T11:37:57.846Z,38.80
2023-02-18T11:40:34.540Z,40.30
2023-02-18T11:43:04.917Z,45.80
2023-02-18T11:45:34.335Z,47.60
2023-02-18T11:48:08.596Z,47.10
2023-02-18T11:50:37.290Z,46.40
2023-02-18T11:53:28.000Z,42.00
2023-02-18T11:55:58.973Z,36.30
2023-02-18T11:58:39.163Z,41.90
2023-02-18T12:01:14.806Z,46.70
2023-02-18T12:03:49.190Z,42.00
2023-02-18T12:06:33.919Z,44.70
2023-02-18T12:09:12.809Z,45.00
2023-02-18T12:11:43.679Z,48.50
2023-02-18T12:14:22.152Z,45.10
2023-02-18T12:17:15.584Z,60.90
2023-02-18T12:20:00.823Z,48.40
2023-02-18T12:22:45.955Z,60.00
2023-02-18T12:25:39.885Z,79.10
2023-02-18T12:28:43.693Z,102.80
2023-02-18T12:31:21.267Z,69.00
2023-02-18T12:34:12.461Z,74.20
2023-02-18T12:36:41.282Z,56.90
2023-02-18T12:39:18.836Z,42.80
2023-02-18T12:41:54.238Z,38.50
2023-02-18T12:44:30.128Z,45.80
2023-02-18T12:47:06.124Z,47.90
2023-02-18T12:50:13.019Z,40.30
2023-02-18T12:53:10.043Z,38.90
2023-02-18T12:55:45.202Z,43.10
2023-02-18T12:58:28.570Z,39.90
2023-02-18T13:00:57.259Z,39.60
2023-02-18T13:04:04.139Z,45.40
2023-02-18T13:06:45.144Z,43.90
2023-02-18T13:09:22.969Z,40.50
2023-02-18T13:12:07.284Z,40.30
2023-02-18T13:14:43.770Z,42.40
2023-02-18T13:17:12.531Z,38.80
2023-02-18T13:20:13.731Z,34.30
2023-02-18T13:22:42.696Z,33.60
2023-02-18T13:25:14.880Z,42.00
2023-02-18T13:28:29.147Z,36.40
2023-02-18T13:31:13.594Z,38.20
2023-02-18T13:34:04.754Z,33.90
2023-02-18T13:37:00.245Z,34.20
2023-02-18T13:39:29.888Z,38.40
2023-02-18T13:42:22.962Z,31.60
2023-02-18T13:44:57.939Z,47.50
2023-02-18T13:47:43.107Z,34.80
2023-02-18T13:50:26.505Z,38.60
2023-02-18T13:53:00.729Z,33.40
2023-02-18T13:55:39.790Z,33.10
2023-02-18T13:58:14.695Z,37.60
2023-02-18T14:00:50.294Z,35.40
2023-02-18T14:03:22.248Z,37.40
2023-02-18T14:05:53.148Z,28.40
2023-02-18T14:08:34.949Z,34.30
2023-02-18T14:11:14.116Z,37.60
2023-02-18T14:13:47.752Z,33.60
2023-02-18T14:16:19.085Z,29.80
2023-02-18T14:18:56.398Z,35.20
2023-02-18T14:21:37.274Z,33.50
2023-02-18T14:24:07.877Z,33.80
2023-02-18T14:26:39.535Z,34.40
2023-02-18T14:29:12.945Z,31.40
2023-02-18T14:31:48.927Z,27.90
2023-02-18T14:34:39.335Z,32.60
2023-02-18T14:37:17.694Z,44.30
2023-02-18T14:39:47.554Z,35.70
2023-02-18T14:42:38.834Z,37.40
2023-02-18T14:45:31.352Z,30.20
2023-02-18T14:48:24.481Z,30.00
2023-02-18T14:50:53.201Z,30.10
2023-02-18T14:53:23.676Z,36.40
2023-02-18T14:55:55.708Z,31.70
2023-02-18T15:01:31.528Z,31.30
2023-02-18T15:04:01.116Z,28.50
2023-02-18T15:06:36.333Z,29.80
2023-02-18T15:09:15.981Z,26.30
2023-02-18T15:12:13.108Z,39.60
2023-02-18T15:14:42.901Z,33.60
2023-02-18T15:17:35.584Z,31.10
2023-02-18T15:20:06.225Z,25.20
2023-02-18T15:22:39.886Z,20.60
2023-02-18T15:25:14.122Z,16.30
2023-02-18T15:27:46.301Z,19.50
2023-02-18T15:30:30.005Z,19.20
2023-02-18T15:33:02.044Z,15.90
2023-02-18T15:35:33.430Z,16.50
2023-02-18T15:38:02.470Z,23.20
2023-02-18T15:40:32.379Z,13.60
2023-02-18T15:43:01.713Z,12.40
2023-02-18T15:45:35.389Z,9.80
2023-02-18T15:48:04.896Z,7.10
2023-02-18T15:50:38.997Z,8.60
2023-02-18T15:53:14.335Z,7.80
2023-02-18T15:55:46.080Z,5.50
2023-02-18T15:58:22.445Z,7.70
2023-02-18T16:00:56.221Z,6.30
2023-02-18T16:03:25.545Z,6.60
2023-02-18T16:06:11.443Z,6.70
2023-02-18T16:08:41.304Z,7.90
2023-02-18T16:11:12.527Z,5.10
2023-02-18T16:13:47.880Z,6.00
2023-02-18T16:16:26.394Z,6.20
2023-02-18T16:18:56.576Z,4.60
2023-02-18T16:21:38.504Z,4.60
2023-02-18T16:24:27.275Z,4.50
2023-02-18T16:26:59.844Z,8.50
2023-02-18T16:29:42.057Z,6.10
2023-02-18T16:32:12.062Z,5.70
2023-02-18T16:34:42.145Z,12.20
2023-02-18T16:37:29.432Z,7.70
2023-02-18T16:39:58.616Z,9.70
2023-02-18T16:42:27.982Z,3.00
2023-02-18T16:44:56.770Z,4.20
2023-02-18T16:47:25.519Z,7.70
2023-02-18T16:49:55.740Z,8.80
2023-02-18T16:52:24.444Z,8.40
2023-02-18T16:54:54.732Z,10.90
2023-02-18T16:57:23.985Z,3.30
2023-02-18T16:59:52.884Z,6.40
2023-02-18T17:02:23.979Z,3.50
2023-02-18T17:04:57.793Z,6.40
2023-02-18T17:07:26.949Z,7.00
2023-02-18T17:09:55.699Z,6.40
2023-02-18T17:12:25.176Z,7.70
2023-02-18T17:14:54.329Z,7.30
2023-02-18T17:17:23.911Z,10.60
2023-02-18T17:19:54.097Z,7.60
2023-02-18T17:22:23.253Z,4.10
2023-02-18T17:24:51.885Z,7.50
2023-02-18T17:27:21.693Z,12.00
2023-02-18T17:29:50.794Z,10.40
2023-02-18T17:32:23.074Z,6.80
2023-02-18T17:34:54.474Z,8.90
2023-02-18T17:37:23.395Z,8.20
2023-02-18T17:39:52.886Z,7.20
2023-02-18T17:42:21.952Z,10.40
2023-02-18T17:44:51.861Z,10.70
2023-02-18T17:47:23.530Z,9.30
2023-02-18T17:49:52.512Z,8.40
2023-02-18T17:52:29.997Z,4.80
2023-02-18T17:54:58.892Z,8.90
2023-02-18T17:57:27.713Z,8.70
2023-02-18T17:59:58.386Z,8.60
2023-02-18T18:02:27.997Z,11.50
2023-02-18T18:04:56.740Z,6.50
2023-02-18T18:07:25.640Z,8.40
2023-02-18T18:09:55.685Z,9.20
2023-02-18T18:12:31.468Z,4.50
2023-02-18T18:15:02.052Z,6.00
2023-02-18T18:17:31.163Z,8.90
2023-02-18T18:20:00.231Z,7.30
2023-02-18T18:22:30.036Z,5.30
2023-02-18T18:24:58.933Z,11.90
2023-02-18T18:27:29.411Z,5.60
2023-02-18T18:29:59.281Z,6.20
2023-02-18T18:32:29.134Z,5.20
2023-02-18T18:34:58.571Z,4.40
2023-02-18T18:37:27.529Z,8.40
2023-02-18T18:39:56.467Z,6.40
2023-02-18T18:42:25.223Z,9.80
2023-02-18T18:44:54.402Z,6.20
2023-02-18T18:47:23.261Z,5.60
2023-02-18T18:49:52.748Z,4.60
2023-02-18T18:52:22.123Z,4.70
2023-02-18T18:54:50.723Z,8.60
2023-02-18T18:57:19.599Z,4.20
2023-02-18T18:59:48.458Z,8.90
2023-02-18T19:02:18.070Z,6.50
2023-02-18T19:04:51.598Z,8.40
2023-02-18T19:07:20.821Z,4.30
2023-02-18T19:09:49.968Z,4.40
2023-02-18T19:12:18.744Z,10.70
2023-02-18T19:14:47.785Z,6.60
2023-02-18T19:17:20.845Z,11.00
2023-02-18T19:19:49.669Z,6.30
2023-02-18T19:22:19.166Z,11.20
2023-02-18T19:24:48.076Z,10.30
2023-02-18T19:27:17.535Z,5.90
2023-02-18T19:29:48.814Z,6.60
2023-02-18T19:32:18.617Z,5.50
2023-02-18T19:34:49.219Z,7.80
2023-02-18T19:37:19.399Z,8.50
2023-02-18T19:39:48.599Z,5.50
2023-02-18T19:42:20.486Z,6.50
2023-02-18T19:44:49.198Z,7.40
2023-02-18T19:47:17.871Z,6.70
2023-02-18T19:49:48.165Z,6.10
2023-02-18T19:52:20.370Z,5.90
2023-02-18T19:54:49.189Z,14.10
2023-02-18T19:57:18.349Z,9.30
2023-02-18T19:59:47.130Z,12.10
2023-02-18T20:02:21.684Z,5.90
2023-02-18T20:04:50.787Z,7.60
2023-02-18T20:07:22.057Z,5.50
2023-02-18T20:09:53.725Z,8.00
2023-02-18T20:12:26.369Z,5.80
2023-02-18T20:14:55.803Z,8.00
2023-02-18T20:17:24.660Z,7.70
2023-02-18T20:19:53.502Z,10.00
2023-02-18T20:22:22.369Z,7.00
2023-02-18T20:24:53.272Z,5.70
2023-02-18T20:27:22.168Z,6.90
2023-02-18T20:29:51.743Z,6.20
2023-02-18T20:32:20.728Z,7.50
2023-02-18T20:34:49.733Z,11.40
2023-02-18T20:37:19.849Z,3.40
2023-02-18T20:39:48.883Z,10.10
2023-02-18T20:42:17.972Z,7.70
2023-02-18T20:44:47.674Z,8.50
2023-02-18T20:47:18.101Z,11.00
2023-02-18T20:49:47.023Z,12.10
2023-02-18T20:52:16.128Z,9.50
2023-02-18T20:54:44.704Z,6.70
2023-02-18T20:57:13.248Z,9.30
2023-02-18T20:59:42.169Z,11.20
2023-02-18T21:02:14.439Z,12.60
2023-02-18T21:04:45.403Z,8.90
2023-02-18T21:07:13.943Z,9.20
2023-02-18T21:09:44.230Z,10.20
2023-02-18T21:12:12.956Z,13.90
2023-02-18T21:14:42.095Z,8.20
2023-02-18T21:17:14.297Z,8.00
2023-02-18T21:19:43.348Z,10.70
2023-02-18T21:22:12.148Z,11.80
2023-02-18T21:24:40.715Z,15.00
2023-02-18T21:27:10.737Z,7.40
2023-02-18T21:29:39.722Z,12.30
2023-02-18T21:32:08.291Z,10.50
2023-02-18T21:34:40.107Z,13.90
2023-02-18T21:37:09.266Z,8.90
2023-02-18T21:39:38.148Z,9.70
2023-02-18T21:42:06.964Z,4.80
2023-02-18T21:44:42.366Z,9.00
2023-02-18T21:47:12.186Z,8.60
2023-02-18T21:49:41.038Z,6.40
2023-02-18T21:52:10.050Z,7.10
2023-02-18T21:54:40.496Z,10.00
2023-02-18T21:57:14.704Z,6.30
2023-02-18T21:59:45.446Z,8.50
2023-02-18T22:02:21.841Z,5.40
2023-02-18T22:04:50.431Z,10.60
2023-02-18T22:07:19.426Z,15.00
2023-02-18T22:09:49.129Z,7.50
2023-02-18T22:12:21.827Z,8.10
2023-02-18T22:14:50.279Z,12.50
2023-02-18T22:17:19.680Z,9.10
2023-02-18T22:19:51.043Z,12.20
2023-02-18T22:22:20.048Z,6.50
2023-02-18T22:27:20.678Z,18.90
2023-02-18T22:29:51.132Z,10.40
2023-02-18T22:32:20.441Z,5.60
2023-02-18T22:34:49.283Z,10.00
2023-02-18T22:37:18.196Z,6.80
2023-02-18T22:39:46.668Z,12.90
2023-02-18T22:42:16.244Z,9.60
2023-02-18T22:44:44.786Z,6.90
2023-02-18T22:47:13.368Z,6.60
2023-02-18T22:49:42.817Z,11.70
2023-02-18T22:52:11.410Z,13.30
2023-02-18T22:54:40.534Z,5.40
2023-02-18T22:57:09.577Z,7.60
2023-02-18T22:59:39.334Z,7.00
2023-02-18T23:02:07.948Z,8.50
2023-02-18T23:04:39.152Z,8.70
2023-02-18T23:07:07.736Z,12.60
2023-02-18T23:09:36.526Z,12.70
2023-02-18T23:12:05.746Z,9.60
2023-02-18T23:14:36.838Z,10.60
2023-02-18T23:17:14.872Z,11.00
2023-02-18T23:19:51.567Z,10.80
2023-02-18T23:22:28.644Z,6.50
2023-02-18T23:24:57.292Z,13.40
2023-02-18T23:27:27.675Z,42.00
2023-02-18T23:29:56.634Z,15.20
2023-02-18T23:32:26.059Z,23.50
2023-02-18T23:34:55.157Z,14.50
2023-02-18T23:37:44.208Z,10.60
2023-02-18T23:40:15.009Z,13.10
2023-02-18T23:42:43.780Z,5.20
2023-02-18T23:45:12.838Z,7.00
2023-02-18T23:47:45.516Z,9.60
2023-02-18T23:50:17.682Z,7.60
2023-02-18T23:52:49.057Z,4.80
2023-02-18T23:55:17.881Z,6.50
2023-02-18T23:57:46.836Z,5.50
